Time;durP1;ratioP1;P1;durP2;ratioP2;P2;SDS_P1;SDS_P2;PMS_P1;PMS_P2;Temp;Humidity;BMP_temperature;BMP_pressure;BME280_temperature;BME280_humidity;BME280_pressure;Samples;Min_cycle;Max_cycle;Signal;HPM_P1;HPM_P2
2023/03/30 00:00:47;;;;;;;5.55;2.17;;;;;;;;;;5047472;28;20206;-91
2023/03/30 00:03:18;;;;;;;5.35;1.75;;;;;;;;;;5042946;28;20208;-91
2023/03/30 00:05:45;;;;;;;8.60;2.78;;;;;;;;;;5046869;28;20200;-91
2023/03/30 00:08:13;;;;;;;8.10;2.25;;;;;;;;;;5050237;28;20212;-91
2023/03/30 00:10:43;;;;;;;7.72;2.22;;;;;;;;;;5060730;28;20241;-92
2023/03/30 00:13:13;;;;;;;7.00;2.15;;;;;;;;;;5042661;28;20207;-91
2023/03/30 00:15:40;;;;;;;8.65;2.30;;;;;;;;;;5052754;28;20192;-91
2023/03/30 00:18:08;;;;;;;6.40;2.08;;;;;;;;;;5054067;28;20234;-91
2023/03/30 00:20:36;;;;;;;5.60;2.08;;;;;;;;;;5054261;28;20334;-91
2023/03/30 00:23:03;;;;;;;6.35;2.25;;;;;;;;;;5051943;28;20200;-91
2023/03/30 00:25:31;;;;;;;6.72;2.15;;;;;;;;;;5045264;28;20207;-91
2023/03/30 00:27:58;;;;;;;6.07;2.13;;;;;;;;;;5048177;28;20287;-91
2023/03/30 00:30:27;;;;;;;7.90;2.35;;;;;;;;;;5042851;28;20208;-91
2023/03/30 00:32:54;;;;;;;4.20;2.20;;;;;;;;;;5046372;28;20304;-91
2023/03/30 00:35:22;;;;;;;6.05;2.50;;;;;;;;;;5039441;28;20208;-91
2023/03/30 00:37:50;;;;;;;6.95;2.58;;;;;;;;;;5047271;28;20227;-91
2023/03/30 00:40:18;;;;;;;7.80;2.03;;;;;;;;;;5041694;28;20246;-92
2023/03/30 00:42:46;;;;;;;6.50;2.25;;;;;;;;;;5049097;28;20200;-92
2023/03/30 00:45:18;;;;;;;5.05;2.10;;;;;;;;;;5049266;28;20217;-91
2023/03/30 00:47:50;;;;;;;8.98;2.35;;;;;;;;;;5053744;28;20207;-91
2023/03/30 00:50:20;;;;;;;6.85;2.42;;;;;;;;;;5050070;28;20286;-92
2023/03/30 00:52:51;;;;;;;5.63;2.10;;;;;;;;;;5053583;28;20199;-91
2023/03/30 00:55:19;;;;;;;7.45;2.20;;;;;;;;;;5049338;28;20265;-92
2023/03/30 00:57:47;;;;;;;10.82;2.45;;;;;;;;;;5054871;28;20297;-92
2023/03/30 01:00:15;;;;;;;8.65;2.33;;;;;;;;;;5055658;28;20203;-91
2023/03/30 01:02:45;;;;;;;6.60;2.40;;;;;;;;;;5049490;28;20200;-91
2023/03/30 01:05:14;;;;;;;7.93;2.53;;;;;;;;;;5054523;28;20203;-91
2023/03/30 01:07:45;;;;;;;5.60;2.20;;;;;;;;;;5050766;28;20291;-92
2023/03/30 01:10:12;;;;;;;4.82;2.35;;;;;;;;;;5055186;28;20227;-91
2023/03/30 01:12:40;;;;;;;6.15;2.60;;;;;;;;;;5054030;28;20199;-91
2023/03/30 01:15:08;;;;;;;7.07;2.10;;;;;;;;;;5050849;28;20227;-91
2023/03/30 01:17:38;;;;;;;7.60;2.22;;;;;;;;;;5055835;28;20287;-92
2023/03/30 01:20:22;;;;;;;9.70;1.95;;;;;;;;;;5053552;28;20238;-91
2023/03/30 01:23:02;;;;;;;8.82;2.30;;;;;;;;;;5050674;28;20282;-91
2023/03/30 01:25:35;;;;;;;6.88;2.38;;;;;;;;;;5041882;28;20227;-92
2023/03/30 01:28:19;;;;;;;5.40;2.05;;;;;;;;;;5049940;28;20206;-91
2023/03/30 01:31:05;;;;;;;7.63;2.00;;;;;;;;;;5042232;28;20292;-92
2023/03/30 01:33:45;;;;;;;4.68;1.73;;;;;;;;;;5048781;28;20207;-91
2023/03/30 01:36:33;;;;;;;6.60;2.05;;;;;;;;;;5056176;28;20211;-91
2023/03/30 01:39:24;;;;;;;7.32;2.38;;;;;;;;;;5039759;28;20233;-91
2023/03/30 01:41:56;;;;;;;5.25;1.92;;;;;;;;;;5033623;28;20203;-91
2023/03/30 01:44:29;;;;;;;5.25;1.92;;;;;;;;;;5052598;28;20208;-91
2023/03/30 01:46:59;;;;;;;8.15;2.03;;;;;;;;;;5050544;28;20223;-92
2023/03/30 01:49:29;;;;;;;6.65;2.10;;;;;;;;;;5051115;28;20204;-92
2023/03/30 01:51:59;;;;;;;5.38;1.92;;;;;;;;;;5054807;28;20294;-92
2023/03/30 01:54:30;;;;;;;9.10;2.28;;;;;;;;;;5051939;28;20257;-91
2023/03/30 01:57:00;;;;;;;7.45;1.92;;;;;;;;;;5040191;28;20292;-92
2023/03/30 01:59:29;;;;;;;4.88;2.08;;;;;;;;;;5053513;28;20230;-91
2023/03/30 02:02:01;;;;;;;3.42;1.95;;;;;;;;;;5028318;28;20207;-92
2023/03/30 02:04:30;;;;;;;4.30;1.90;;;;;;;;;;5047050;28;20191;-92
2023/03/30 02:07:00;;;;;;;4.43;1.98;;;;;;;;;;5043888;28;20214;-92
2023/03/30 02:09:28;;;;;;;4.90;2.22;;;;;;;;;;5043847;28;20207;-91
2023/03/30 02:11:56;;;;;;;8.80;2.30;;;;;;;;;;5042566;28;20278;-92
2023/03/30 02:14:27;;;;;;;3.83;1.88;;;;;;;;;;5046951;28;20200;-91
2023/03/30 02:16:56;;;;;;;5.78;2.10;;;;;;;;;;5050339;28;20199;-91
2023/03/30 02:19:24;;;;;;;5.25;2.20;;;;;;;;;;5050224;28;20223;-91
2023/03/30 02:21:51;;;;;;;6.53;2.30;;;;;;;;;;5044775;28;20241;-91
2023/03/30 02:24:21;;;;;;;4.60;2.03;;;;;;;;;;5052762;28;20208;-91
2023/03/30 02:26:50;;;;;;;4.05;2.20;;;;;;;;;;5049752;28;20214;-91
2023/03/30 02:29:18;;;;;;;5.85;2.33;;;;;;;;;;5056871;28;20249;-92
2023/03/30 02:31:48;;;;;;;8.35;2.45;;;;;;;;;;5047985;28;20206;-90
2023/03/30 02:34:20;;;;;;;7.10;2.40;;;;;;;;;;5051724;28;20286;-89
2023/03/30 02:37:03;;;;;;;5.68;1.95;;;;;;;;;;5046454;28;20223;-90
2023/03/30 02:39:38;;;;;;;7.75;2.60;;;;;;;;;;5043415;28;20215;-90
2023/03/30 02:42:23;;;;;;;7.38;2.38;;;;;;;;;;5046344;28;20192;-90
2023/03/30 02:44:57;;;;;;;5.20;2.28;;;;;;;;;;5053699;28;20265;-91
2023/03/30 02:47:29;;;;;;;4.60;2.17;;;;;;;;;;5050399;28;20286;-90
2023/03/30 02:49:58;;;;;;;3.70;2.20;;;;;;;;;;5041403;28;20203;-89
2023/03/30 02:52:35;;;;;;;2.70;1.90;;;;;;;;;;5045205;28;20272;-90
2023/03/30 02:55:07;;;;;;;4.57;2.58;;;;;;;;;;5046490;28;20294;-91
2023/03/30 02:57:37;;;;;;;5.25;2.10;;;;;;;;;;5052148;28;20286;-90
2023/03/30 03:00:11;;;;;;;4.70;2.00;;;;;;;;;;5051594;28;20208;-91
2023/03/30 03:02:41;;;;;;;9.25;2.45;;;;;;;;;;5049943;28;20214;-90
2023/03/30 03:05:10;;;;;;;6.10;2.17;;;;;;;;;;5053076;28;20210;-90
2023/03/30 03:07:37;;;;;;;3.47;2.05;;;;;;;;;;5045354;28;20216;-90
2023/03/30 03:10:05;;;;;;;5.07;2.38;;;;;;;;;;5054838;28;20199;-91
2023/03/30 03:12:33;;;;;;;6.72;1.90;;;;;;;;;;5054422;28;20257;-91
2023/03/30 03:15:01;;;;;;;5.38;2.20;;;;;;;;;;5053083;28;20279;-90
2023/03/30 03:17:33;;;;;;;6.22;2.25;;;;;;;;;;5052967;28;20199;-90
2023/03/30 03:20:02;;;;;;;5.25;2.00;;;;;;;;;;5057519;28;20246;-90
2023/03/30 03:22:30;;;;;;;5.32;2.28;;;;;;;;;;5040299;28;20253;-90
2023/03/30 03:24:58;;;;;;;8.43;2.60;;;;;;;;;;5052817;28;20287;-91
2023/03/30 03:27:25;;;;;;;5.15;2.53;;;;;;;;;;5051323;28;20203;-90
2023/03/30 03:29:53;;;;;;;5.43;2.20;;;;;;;;;;5046898;28;20255;-90
2023/03/30 03:32:20;;;;;;;5.47;2.60;;;;;;;;;;5044956;28;20208;-91
2023/03/30 03:34:48;;;;;;;7.10;2.97;;;;;;;;;;5047985;28;20195;-90
2023/03/30 03:37:16;;;;;;;6.50;2.67;;;;;;;;;;5046427;28;20208;-91
2023/03/30 03:39:44;;;;;;;4.72;2.40;;;;;;;;;;5056870;28;20318;-90
2023/03/30 03:42:11;;;;;;;5.85;2.75;;;;;;;;;;5045803;28;20208;-90
2023/03/30 03:44:39;;;;;;;6.88;2.60;;;;;;;;;;5057088;28;20210;-90
2023/03/30 03:47:07;;;;;;;9.00;2.78;;;;;;;;;;5047174;28;20207;-90
2023/03/30 03:49:34;;;;;;;6.40;2.40;;;;;;;;;;5052435;28;20263;-91
2023/03/30 03:52:01;;;;;;;5.13;2.65;;;;;;;;;;5043557;28;20201;-91
2023/03/30 03:54:30;;;;;;;7.13;2.50;;;;;;;;;;5053458;28;20207;-90
2023/03/30 03:56:57;;;;;;;9.00;2.80;;;;;;;;;;5045751;28;20281;-91
2023/03/30 03:59:25;;;;;;;6.68;2.67;;;;;;;;;;5050987;28;20224;-90
2023/03/30 04:01:52;;;;;;;4.22;2.40;;;;;;;;;;5043707;28;20204;-90
2023/03/30 04:04:20;;;;;;;6.25;2.65;;;;;;;;;;5043226;28;20261;-91
2023/03/30 04:06:47;;;;;;;8.70;3.08;;;;;;;;;;5040871;28;20200;-91
2023/03/30 04:09:14;;;;;;;7.10;2.63;;;;;;;;;;5042291;28;20205;-90
2023/03/30 04:11:43;;;;;;;10.15;2.83;;;;;;;;;;5045868;28;20209;-91
2023/03/30 04:14:10;;;;;;;6.97;2.95;;;;;;;;;;5045530;28;20240;-90
2023/03/30 04:16:37;;;;;;;6.63;2.95;;;;;;;;;;5043109;28;20204;-90
2023/03/30 04:19:07;;;;;;;8.70;2.55;;;;;;;;;;5043027;28;20215;-90
2023/03/30 04:21:35;;;;;;;5.38;2.72;;;;;;;;;;5024054;28;20237;-90
2023/03/30 04:24:02;;;;;;;8.35;2.40;;;;;;;;;;5059449;28;20211;-90
2023/03/30 04:26:29;;;;;;;6.63;2.63;;;;;;;;;;5049674;28;20208;-91
2023/03/30 04:29:00;;;;;;;6.03;2.70;;;;;;;;;;5045457;28;20215;-91
2023/03/30 04:31:33;;;;;;;6.75;2.92;;;;;;;;;;5043781;28;20200;-91
2023/03/30 04:34:01;;;;;;;7.50;2.42;;;;;;;;;;5047571;28;20260;-91
2023/03/30 04:36:29;;;;;;;9.73;2.42;;;;;;;;;;5049476;28;20206;-90
2023/03/30 04:39:00;;;;;;;5.95;2.20;;;;;;;;;;5049134;28;20261;-91
2023/03/30 04:41:32;;;;;;;8.10;2.13;;;;;;;;;;5041520;28;20192;-91
2023/03/30 04:44:01;;;;;;;7.03;2.50;;;;;;;;;;5049601;28;20203;-91
2023/03/30 04:46:28;;;;;;;6.72;2.20;;;;;;;;;;5034548;28;20283;-91
2023/03/30 04:48:56;;;;;;;6.13;2.40;;;;;;;;;;5046859;28;20204;-91
2023/03/30 04:51:23;;;;;;;7.25;2.80;;;;;;;;;;5048529;28;20207;-91
2023/03/30 04:53:50;;;;;;;7.03;2.75;;;;;;;;;;5050915;28;20210;-92
2023/03/30 04:56:18;;;;;;;5.10;2.78;;;;;;;;;;5045203;28;20286;-90
2023/03/30 04:58:45;;;;;;;5.82;2.75;;;;;;;;;;5039685;28;20239;-90
2023/03/30 05:01:14;;;;;;;7.22;2.97;;;;;;;;;;5044448;28;20208;-91
2023/03/30 05:03:41;;;;;;;6.50;2.65;;;;;;;;;;5039744;28;20218;-89
2023/03/30 05:06:10;;;;;;;6.97;2.90;;;;;;;;;;5040624;28;20216;-89
2023/03/30 05:08:37;;;;;;;8.35;2.78;;;;;;;;;;5044924;28;20206;-88
2023/03/30 05:11:05;;;;;;;6.90;2.83;;;;;;;;;;5048878;28;20187;-88
2023/03/30 05:13:32;;;;;;;5.63;2.95;;;;;;;;;;5048273;28;20291;-89
2023/03/30 05:16:00;;;;;;;6.03;3.00;;;;;;;;;;5047310;28;20196;-89
2023/03/30 05:18:29;;;;;;;7.03;3.17;;;;;;;;;;5049843;28;20211;-89
2023/03/30 05:20:59;;;;;;;7.97;3.28;;;;;;;;;;5037183;28;20262;-92
2023/03/30 05:23:27;;;;;;;7.20;2.80;;;;;;;;;;5042688;28;20228;-89
2023/03/30 05:25:54;;;;;;;5.80;2.67;;;;;;;;;;5046681;28;20199;-90
2023/03/30 05:28:22;;;;;;;10.40;2.90;;;;;;;;;;5039361;28;20215;-89
2023/03/30 05:30:53;;;;;;;6.53;2.75;;;;;;;;;;5046537;28;20286;-90
2023/03/30 05:33:21;;;;;;;7.63;3.10;;;;;;;;;;5043236;28;20200;-90
2023/03/30 05:35:49;;;;;;;4.60;2.60;;;;;;;;;;5044252;28;20219;-90
2023/03/30 05:38:16;;;;;;;7.93;2.93;;;;;;;;;;5044103;28;20248;-88
2023/03/30 05:40:44;;;;;;;5.10;2.70;;;;;;;;;;5042492;28;20310;-90
2023/03/30 05:43:12;;;;;;;5.90;2.90;;;;;;;;;;5041957;28;20292;-89
2023/03/30 05:45:42;;;;;;;5.05;2.40;;;;;;;;;;5046121;28;20228;-89
2023/03/30 05:48:10;;;;;;;4.90;2.97;;;;;;;;;;5042849;28;20205;-90
2023/03/30 05:50:37;;;;;;;4.22;2.40;;;;;;;;;;5046001;28;20206;-89
2023/03/30 05:53:06;;;;;;;4.17;2.33;;;;;;;;;;5038720;28;20283;-89
2023/03/30 05:55:33;;;;;;;5.70;2.42;;;;;;;;;;5045592;28;20204;-90
2023/03/30 05:58:02;;;;;;;4.45;2.67;;;;;;;;;;5054436;28;20206;-90
2023/03/30 06:00:32;;;;;;;5.23;3.03;;;;;;;;;;5052005;28;20231;-90
2023/03/30 06:02:59;;;;;;;5.85;2.67;;;;;;;;;;5052985;28;20210;-90
2023/03/30 06:05:26;;;;;;;4.75;2.75;;;;;;;;;;5051389;28;20195;-90
2023/03/30 06:07:53;;;;;;;7.70;2.85;;;;;;;;;;5050144;28;20286;-89
2023/03/30 06:10:22;;;;;;;6.30;2.47;;;;;;;;;;5048217;28;20208;-89
2023/03/30 06:12:49;;;;;;;5.33;2.70;;;;;;;;;;5040672;28;20200;-89
2023/03/30 06:15:17;;;;;;;6.72;2.97;;;;;;;;;;5046751;28;20204;-89
2023/03/30 06:17:45;;;;;;;6.57;3.35;;;;;;;;;;5045676;28;20295;-89
2023/03/30 06:20:13;;;;;;;5.28;2.83;;;;;;;;;;5050446;28;20253;-89
2023/03/30 06:22:41;;;;;;;5.68;3.20;;;;;;;;;;5042580;28;20214;-89
2023/03/30 06:25:09;;;;;;;7.03;2.95;;;;;;;;;;5045440;28;20204;-89
2023/03/30 06:27:38;;;;;;;7.53;3.27;;;;;;;;;;5047395;28;20203;-88
2023/03/30 06:30:08;;;;;;;5.65;3.30;;;;;;;;;;5047580;28;20309;-88
2023/03/30 06:32:35;;;;;;;7.57;3.37;;;;;;;;;;5056228;28;20203;-89
2023/03/30 06:35:03;;;;;;;5.95;3.13;;;;;;;;;;5053100;28;20204;-89
2023/03/30 06:37:31;;;;;;;6.37;3.20;;;;;;;;;;5048997;28;20280;-89
2023/03/30 06:39:59;;;;;;;7.17;2.97;;;;;;;;;;5042398;28;20216;-89
2023/03/30 06:42:27;;;;;;;7.80;3.50;;;;;;;;;;5044421;28;20218;-89
2023/03/30 06:44:56;;;;;;;6.20;2.78;;;;;;;;;;5048531;28;20200;-89
2023/03/30 06:47:23;;;;;;;8.93;3.30;;;;;;;;;;5042952;28;20203;-88
2023/03/30 06:49:51;;;;;;;7.07;3.75;;;;;;;;;;5038493;28;20193;-88
2023/03/30 06:52:18;;;;;;;7.28;3.60;;;;;;;;;;5047076;28;20227;-89
2023/03/30 06:54:45;;;;;;;5.20;3.08;;;;;;;;;;5041150;28;20291;-88
2023/03/30 06:57:12;;;;;;;5.97;3.05;;;;;;;;;;5044749;28;20480;-89
2023/03/30 06:59:40;;;;;;;8.45;4.70;;;;;;;;;;5048486;28;20244;-89
2023/03/30 07:02:13;;;;;;;8.70;4.47;;;;;;;;;;5044403;28;20199;-89
2023/03/30 07:04:40;;;;;;;7.77;5.57;;;;;;;;;;5043337;28;20291;-89
2023/03/30 07:07:07;;;;;;;6.50;3.05;;;;;;;;;;5053551;28;20207;-89
2023/03/30 07:09:35;;;;;;;3.75;2.67;;;;;;;;;;5044361;28;20275;-89
2023/03/30 07:12:02;;;;;;;8.80;2.83;;;;;;;;;;5045720;28;20208;-89
2023/03/30 07:14:30;;;;;;;5.10;2.53;;;;;;;;;;5049329;28;20294;-89
2023/03/30 07:16:57;;;;;;;5.82;2.78;;;;;;;;;;5042951;28;20230;-89
2023/03/30 07:19:26;;;;;;;6.22;2.78;;;;;;;;;;5037240;28;20284;-89
2023/03/30 07:21:53;;;;;;;6.00;2.75;;;;;;;;;;5041575;28;20263;-88
2023/03/30 07:24:20;;;;;;;6.57;2.85;;;;;;;;;;5051015;28;20270;-89
2023/03/30 07:26:48;;;;;;;7.57;2.90;;;;;;;;;;5049269;28;20222;-89
2023/03/30 07:29:15;;;;;;;5.13;2.80;;;;;;;;;;5044739;28;20227;-89
2023/03/30 07:31:42;;;;;;;10.20;2.80;;;;;;;;;;5047722;28;20246;-89
2023/03/30 07:34:09;;;;;;;4.97;2.70;;;;;;;;;;5045914;28;20235;-89
2023/03/30 07:36:38;;;;;;;5.88;2.72;;;;;;;;;;5046502;28;20227;-89
2023/03/30 07:39:07;;;;;;;7.93;2.55;;;;;;;;;;5042876;28;20202;-89
2023/03/30 07:41:34;;;;;;;5.22;2.80;;;;;;;;;;5045209;28;20272;-89
2023/03/30 07:44:01;;;;;;;5.10;2.78;;;;;;;;;;5051343;28;20268;-89
2023/03/30 07:46:28;;;;;;;4.10;2.55;;;;;;;;;;5046568;28;20200;-90
2023/03/30 07:48:56;;;;;;;5.60;2.40;;;;;;;;;;5039429;28;20276;-89
2023/03/30 07:51:23;;;;;;;4.32;2.60;;;;;;;;;;5044894;28;20203;-89
2023/03/30 07:53:52;;;;;;;6.22;2.63;;;;;;;;;;5046662;28;20299;-89
2023/03/30 07:56:19;;;;;;;6.10;2.60;;;;;;;;;;5045255;28;20299;-89
2023/03/30 07:58:47;;;;;;;4.93;2.40;;;;;;;;;;5048953;28;20204;-88
2023/03/30 08:01:14;;;;;;;5.15;2.70;;;;;;;;;;5046807;28;20222;-89
2023/03/30 08:03:43;;;;;;;6.25;2.50;;;;;;;;;;5046918;28;20204;-89
2023/03/30 08:06:11;;;;;;;4.65;2.55;;;;;;;;;;5042638;28;20202;-88
2023/03/30 08:08:39;;;;;;;7.28;2.60;;;;;;;;;;5036786;28;20200;-89
2023/03/30 08:11:10;;;;;;;5.07;2.42;;;;;;;;;;5051163;28;20195;-89
2023/03/30 08:13:37;;;;;;;7.13;2.55;;;;;;;;;;5046245;28;20247;-89
2023/03/30 08:16:05;;;;;;;4.70;2.47;;;;;;;;;;5041598;28;20235;-89
2023/03/30 08:18:32;;;;;;;5.15;2.80;;;;;;;;;;5033702;28;20240;-88
2023/03/30 08:20:59;;;;;;;6.45;2.13;;;;;;;;;;5045954;28;20241;-88
2023/03/30 08:23:27;;;;;;;5.90;2.38;;;;;;;;;;5050948;28;20199;-90
2023/03/30 08:25:57;;;;;;;4.88;2.20;;;;;;;;;;5044763;28;20210;-90
2023/03/30 08:28:26;;;;;;;5.40;2.38;;;;;;;;;;5057359;28;20286;-89
2023/03/30 08:30:53;;;;;;;3.60;2.08;;;;;;;;;;5042562;28;20236;-89
2023/03/30 08:33:21;;;;;;;4.50;1.95;;;;;;;;;;5044025;28;20251;-90
2023/03/30 08:35:49;;;;;;;5.18;2.47;;;;;;;;;;5043744;28;20231;-89
2023/03/30 08:38:17;;;;;;;4.97;2.15;;;;;;;;;;5050802;28;20207;-89
2023/03/30 08:40:45;;;;;;;4.60;2.10;;;;;;;;;;5048878;28;20227;-89
2023/03/30 08:43:23;;;;;;;4.85;2.20;;;;;;;;;;5046788;28;20209;-89
2023/03/30 08:45:52;;;;;;;5.95;2.40;;;;;;;;;;5049518;28;20218;-90
2023/03/30 08:48:21;;;;;;;5.72;2.28;;;;;;;;;;5050946;28;20203;-89
2023/03/30 08:50:53;;;;;;;3.72;2.00;;;;;;;;;;5052483;28;20268;-90
2023/03/30 08:53:21;;;;;;;3.83;2.00;;;;;;;;;;5049614;28;20210;-89
2023/03/30 08:55:51;;;;;;;7.30;2.13;;;;;;;;;;5044986;28;20235;-90
2023/03/30 08:58:20;;;;;;;6.05;1.90;;;;;;;;;;5047499;28;20203;-89
2023/03/30 09:00:50;;;;;;;6.07;3.13;;;;;;;;;;5040954;28;20325;-90
2023/03/30 09:03:26;;;;;;;6.15;2.13;;;;;;;;;;5041577;28;20227;-90
2023/03/30 09:05:55;;;;;;;4.00;2.17;;;;;;;;;;5044819;28;20202;-90
2023/03/30 09:08:26;;;;;;;4.60;1.90;;;;;;;;;;5036618;28;20210;-89
2023/03/30 09:10:57;;;;;;;5.28;1.83;;;;;;;;;;5048164;28;20216;-89
2023/03/30 09:13:26;;;;;;;3.90;2.15;;;;;;;;;;5038609;28;20203;-89
2023/03/30 09:15:55;;;;;;;4.78;2.17;;;;;;;;;;5041789;28;20200;-89
2023/03/30 09:18:26;;;;;;;3.80;1.80;;;;;;;;;;5047641;28;20276;-90
2023/03/30 09:20:56;;;;;;;4.80;1.83;;;;;;;;;;5042891;28;20333;-90
2023/03/30 09:23:24;;;;;;;5.38;2.08;;;;;;;;;;5044188;28;20232;-90
2023/03/30 09:25:57;;;;;;;6.25;2.08;;;;;;;;;;5039823;28;20231;-91
2023/03/30 09:28:27;;;;;;;5.80;2.33;;;;;;;;;;5046421;28;20208;-89
2023/03/30 09:30:57;;;;;;;6.50;1.90;;;;;;;;;;5046892;28;20218;-89
2023/03/30 09:33:32;;;;;;;4.63;2.17;;;;;;;;;;5042505;28;20259;-90
2023/03/30 09:36:10;;;;;;;4.22;1.95;;;;;;;;;;5046903;28;20199;-89
2023/03/30 09:38:40;;;;;;;4.60;1.88;;;;;;;;;;5047989;28;20300;-90
2023/03/30 09:41:13;;;;;;;5.78;2.25;;;;;;;;;;5043484;28;20235;-90
2023/03/30 09:43:43;;;;;;;3.70;1.83;;;;;;;;;;5041488;28;20191;-89
2023/03/30 09:46:10;;;;;;;5.75;1.73;;;;;;;;;;5049063;28;20232;-90
2023/03/30 09:48:43;;;;;;;5.97;2.22;;;;;;;;;;5047673;28;20207;-90
2023/03/30 09:51:15;;;;;;;5.22;1.80;;;;;;;;;;5040612;28;20217;-90
2023/03/30 09:53:43;;;;;;;5.03;2.00;;;;;;;;;;5053490;28;20211;-90
2023/03/30 09:56:11;;;;;;;5.10;1.58;;;;;;;;;;5041657;28;20304;-91
2023/03/30 09:58:39;;;;;;;5.90;1.80;;;;;;;;;;5055414;28;20234;-91
2023/03/30 10:01:07;;;;;;;6.45;1.98;;;;;;;;;;5052432;28;20209;-90
2023/03/30 10:03:35;;;;;;;3.75;1.88;;;;;;;;;;5046341;28;20204;-90
2023/03/30 10:06:06;;;;;;;4.32;1.80;;;;;;;;;;5049572;28;20212;-90
2023/03/30 10:08:33;;;;;;;4.30;1.75;;;;;;;;;;5035310;28;20208;-91
2023/03/30 10:11:04;;;;;;;5.75;2.05;;;;;;;;;;5048741;28;20208;-89
2023/03/30 10:13:33;;;;;;;6.50;2.17;;;;;;;;;;5051195;28;20328;-90
2023/03/30 10:16:04;;;;;;;4.57;2.22;;;;;;;;;;5058656;28;20229;-90
2023/03/30 10:18:39;;;;;;;5.28;2.15;;;;;;;;;;5044632;28;20200;-91
2023/03/30 10:21:08;;;;;;;2.88;1.55;;;;;;;;;;5046669;28;20229;-89
2023/03/30 10:23:38;;;;;;;4.00;1.40;;;;;;;;;;5046131;28;20233;-90
2023/03/30 10:26:09;;;;;;;3.90;1.67;;;;;;;;;;5052079;22;20231;-67
2023/03/30 10:28:37;;;;;;;5.38;1.80;;;;;;;;;;5026784;28;20227;-67
2023/03/30 10:31:05;;;;;;;5.13;1.50;;;;;;;;;;5025473;28;20196;-67
2023/03/30 10:33:38;;;;;;;4.45;2.30;;;;;;;;;;5026756;28;20210;-69
2023/03/30 10:36:07;;;;;;;2.80;1.50;;;;;;;;;;5022480;28;20201;-68
2023/03/30 10:38:36;;;;;;;5.68;3.28;;;;;;;;;;5018874;28;20197;-67
2023/03/30 10:41:07;;;;;;;3.13;1.50;;;;;;;;;;5020330;28;20232;-67
2023/03/30 10:43:35;;;;;;;3.80;1.60;;;;;;;;;;5020095;28;20208;-67
2023/03/30 10:46:07;;;;;;;3.03;1.60;;;;;;;;;;5019266;28;20212;-67
2023/03/30 10:48:43;;;;;;;2.78;1.55;;;;;;;;;;5022858;28;20339;-67
2023/03/30 10:51:12;;;;;;;4.25;1.90;;;;;;;;;;5020318;28;20209;-66
2023/03/30 10:53:44;;;;;;;4.55;2.10;;;;;;;;;;5026254;28;20292;-67
2023/03/30 10:56:18;;;;;;;3.13;1.65;;;;;;;;;;5022492;28;20209;-67
2023/03/30 10:58:53;;;;;;;3.80;1.85;;;;;;;;;;5023318;28;20211;-67
2023/03/30 11:01:23;;;;;;;4.53;1.83;;;;;;;;;;5024599;28;20216;-67
2023/03/30 11:03:53;;;;;;;4.57;1.63;;;;;;;;;;5023816;28;20211;-67
2023/03/30 11:06:22;;;;;;;3.78;1.55;;;;;;;;;;5022637;28;20211;-67
2023/03/30 11:08:52;;;;;;;4.05;1.80;;;;;;;;;;5025867;28;20204;-67
2023/03/30 11:11:22;;;;;;;5.32;1.67;;;;;;;;;;5025846;28;20225;-68
2023/03/30 11:13:50;;;;;;;4.13;1.50;;;;;;;;;;5020945;28;20200;-68
2023/03/30 11:16:20;;;;;;;7.18;1.60;;;;;;;;;;5018999;28;20243;-68
2023/03/30 11:18:51;;;;;;;6.65;1.60;;;;;;;;;;5026355;28;20208;-67
2023/03/30 11:21:21;;;;;;;3.55;1.77;;;;;;;;;;5020894;28;20228;-69
2023/03/30 11:23:51;;;;;;;4.57;1.40;;;;;;;;;;5021684;28;20197;-68
2023/03/30 11:26:21;;;;;;;2.97;1.58;;;;;;;;;;5021536;28;20238;-68
2023/03/30 11:28:53;;;;;;;3.40;1.50;;;;;;;;;;5022079;28;20232;-69
2023/03/30 11:31:29;;;;;;;5.43;1.90;;;;;;;;;;5024158;28;20207;-68
2023/03/30 11:33:59;;;;;;;3.70;1.48;;;;;;;;;;5023456;28;20262;-68
2023/03/30 11:36:30;;;;;;;3.90;1.70;;;;;;;;;;5027284;28;20216;-68
2023/03/30 11:39:02;;;;;;;4.57;1.92;;;;;;;;;;5023890;28;20206;-68
2023/03/30 11:41:36;;;;;;;4.43;1.80;;;;;;;;;;5021332;28;20305;-68
2023/03/30 11:44:03;;;;;;;3.75;1.48;;;;;;;;;;5020870;28;20208;-68
2023/03/30 11:46:36;;;;;;;3.15;1.30;;;;;;;;;;5015811;28;20212;-67
2023/03/30 11:49:15;;;;;;;5.47;1.52;;;;;;;;;;5018317;28;20204;-68
2023/03/30 11:51:48;;;;;;;3.65;1.48;;;;;;;;;;5020029;28;20291;-68
2023/03/30 11:54:29;;;;;;;3.65;1.67;;;;;;;;;;5015195;28;20205;-69
2023/03/30 11:57:02;;;;;;;4.25;1.20;;;;;;;;;;5020742;28;20286;-67
2023/03/30 11:59:33;;;;;;;4.07;1.45;;;;;;;;;;5017060;28;20254;-68
2023/03/30 12:02:11;;;;;;;5.47;1.38;;;;;;;;;;5018815;28;20228;-68
2023/03/30 12:04:40;;;;;;;2.95;1.35;;;;;;;;;;5018022;28;20192;-67
2023/03/30 12:07:11;;;;;;;4.88;1.75;;;;;;;;;;5022869;28;20201;-67
2023/03/30 12:09:39;;;;;;;4.03;1.35;;;;;;;;;;5021817;28;20200;-66
2023/03/30 12:12:14;;;;;;;2.95;1.50;;;;;;;;;;5023342;28;20192;-67
2023/03/30 12:14:48;;;;;;;4.60;1.50;;;;;;;;;;5019550;28;20203;-66
2023/03/30 12:17:24;;;;;;;5.15;1.88;;;;;;;;;;5019652;28;20204;-67
2023/03/30 12:19:55;;;;;;;5.03;1.60;;;;;;;;;;5021248;28;20200;-67
2023/03/30 12:22:25;;;;;;;3.58;1.40;;;;;;;;;;5016918;28;20247;-68
2023/03/30 12:24:55;;;;;;;3.88;1.48;;;;;;;;;;5018633;28;20209;-66
2023/03/30 12:27:23;;;;;;;3.97;1.65;;;;;;;;;;5018897;28;20232;-66
2023/03/30 12:29:51;;;;;;;2.85;1.33;;;;;;;;;;5017550;28;20240;-68
2023/03/30 12:32:25;;;;;;;2.45;1.67;;;;;;;;;;5018102;28;20216;-66
2023/03/30 12:34:53;;;;;;;4.95;1.20;;;;;;;;;;5018283;28;20298;-67
2023/03/30 12:37:21;;;;;;;3.60;1.50;;;;;;;;;;5022753;28;20213;-66
2023/03/30 12:39:52;;;;;;;5.40;1.48;;;;;;;;;;5020243;28;20204;-66
2023/03/30 12:42:26;;;;;;;4.20;1.20;;;;;;;;;;5026378;28;20219;-66
2023/03/30 12:45:04;;;;;;;6.20;1.40;;;;;;;;;;5026681;28;20274;-67
2023/03/30 12:47:39;;;;;;;2.28;1.15;;;;;;;;;;5022807;28;20305;-67
2023/03/30 12:50:16;;;;;;;3.47;1.40;;;;;;;;;;5024563;28;20203;-67
2023/03/30 12:52:48;;;;;;;1.98;1.05;;;;;;;;;;5023478;28;20283;-66
2023/03/30 12:55:21;;;;;;;3.72;1.50;;;;;;;;;;5023571;28;20204;-66
2023/03/30 12:58:02;;;;;;;2.85;1.30;;;;;;;;;;5028276;28;20205;-67
2023/03/30 13:00:39;;;;;;;5.03;1.58;;;;;;;;;;5020755;28;20211;-67
2023/03/30 13:03:20;;;;;;;3.22;1.45;;;;;;;;;;5022207;28;20216;-66
2023/03/30 13:05:50;;;;;;;5.28;1.50;;;;;;;;;;5022867;28;20214;-66
2023/03/30 13:08:20;;;;;;;5.03;1.55;;;;;;;;;;5026673;28;20239;-66
2023/03/30 13:10:47;;;;;;;7.93;1.70;;;;;;;;;;5023911;28;20208;-67
2023/03/30 13:13:21;;;;;;;4.97;1.55;;;;;;;;;;5025040;28;20204;-67
2023/03/30 13:15:51;;;;;;;5.95;1.80;;;;;;;;;;5021564;28;20201;-66
2023/03/30 13:18:26;;;;;;;4.63;1.80;;;;;;;;;;5024624;28;20227;-67
2023/03/30 13:21:04;;;;;;;4.07;1.90;;;;;;;;;;5021846;28;20234;-68
2023/03/30 13:23:32;;;;;;;4.72;1.60;;;;;;;;;;5021316;28;20200;-66
2023/03/30 13:26:07;;;;;;;4.82;1.85;;;;;;;;;;5022224;28;20331;-67
2023/03/30 13:28:37;;;;;;;6.50;1.75;;;;;;;;;;5020064;28;20209;-67
2023/03/30 13:31:10;;;;;;;6.00;1.80;;;;;;;;;;5021422;28;20215;-66
2023/03/30 13:33:39;;;;;;;6.50;1.83;;;;;;;;;;5020263;28;20201;-66
2023/03/30 13:36:11;;;;;;;4.30;1.77;;;;;;;;;;5021721;28;20211;-67
2023/03/30 13:38:50;;;;;;;6.55;2.13;;;;;;;;;;5024406;28;20213;-68
2023/03/30 13:41:24;;;;;;;5.90;1.83;;;;;;;;;;5022887;28;20207;-68
2023/03/30 13:43:59;;;;;;;5.65;1.85;;;;;;;;;;5022845;28;20204;-69
2023/03/30 13:46:32;;;;;;;6.38;2.10;;;;;;;;;;5016917;28;20202;-69
2023/03/30 13:49:12;;;;;;;5.18;1.67;;;;;;;;;;5020550;28;20207;-68
2023/03/30 13:51:41;;;;;;;5.50;1.70;;;;;;;;;;5018178;28;20196;-69
2023/03/30 13:54:12;;;;;;;3.97;1.77;;;;;;;;;;5023781;28;20204;-69
2023/03/30 13:56:41;;;;;;;3.58;1.30;;;;;;;;;;5021560;28;20205;-69
2023/03/30 13:59:11;;;;;;;2.45;1.10;;;;;;;;;;5023654;28;20205;-69
2023/03/30 14:01:41;;;;;;;3.85;1.33;;;;;;;;;;5021460;28;20212;-67
2023/03/30 14:04:10;;;;;;;5.15;1.80;;;;;;;;;;5029064;28;20212;-69
2023/03/30 14:06:42;;;;;;;3.38;1.50;;;;;;;;;;5022624;28;20196;-69
2023/03/30 14:09:11;;;;;;;4.72;1.27;;;;;;;;;;5021785;28;20218;-69
2023/03/30 14:11:40;;;;;;;3.92;1.50;;;;;;;;;;5024761;28;20215;-69
2023/03/30 14:14:07;;;;;;;5.57;1.77;;;;;;;;;;5024045;28;20207;-69
2023/03/30 14:16:36;;;;;;;5.10;1.73;;;;;;;;;;5025077;28;20231;-69
2023/03/30 14:19:18;;;;;;;6.53;1.67;;;;;;;;;;5021299;28;20248;-68
2023/03/30 14:21:45;;;;;;;6.43;1.58;;;;;;;;;;5021537;28;20228;-68
2023/03/30 14:24:13;;;;;;;4.93;1.48;;;;;;;;;;5024459;28;20204;-68
2023/03/30 14:26:41;;;;;;;5.72;1.60;;;;;;;;;;5023582;28;20228;-68
2023/03/30 14:29:11;;;;;;;3.55;1.75;;;;;;;;;;5023222;28;20212;-68
2023/03/30 14:31:39;;;;;;;3.45;1.35;;;;;;;;;;5024924;28;20232;-68
2023/03/30 14:34:21;;;;;;;3.80;1.40;;;;;;;;;;5022109;28;20208;-69
2023/03/30 14:36:49;;;;;;;3.10;1.15;;;;;;;;;;5020442;28;20204;-68
2023/03/30 14:39:18;;;;;;;2.60;1.05;;;;;;;;;;5019544;28;20207;-69
2023/03/30 14:41:45;;;;;;;1.75;0.90;;;;;;;;;;5022068;28;20212;-68
2023/03/30 14:44:14;;;;;;;3.17;1.10;;;;;;;;;;5018933;28;20209;-68
2023/03/30 14:46:43;;;;;;;2.25;1.10;;;;;;;;;;5021512;28;20208;-68
2023/03/30 14:49:15;;;;;;;3.17;1.90;;;;;;;;;;5028203;28;20200;-69
2023/03/30 14:51:43;;;;;;;1.55;0.90;;;;;;;;;;5022099;28;20266;-68
2023/03/30 14:54:14;;;;;;;2.50;1.48;;;;;;;;;;5024759;28;20216;-68
2023/03/30 14:56:41;;;;;;;6.45;2.30;;;;;;;;;;5015874;28;20235;-69
2023/03/30 14:59:10;;;;;;;3.30;1.58;;;;;;;;;;5026512;28;20204;-68